Bin Ghashir, Libya
Current Conditions -  °F | °C
As of 6:00 PM on Wednesday 26 Nov 2014 (Local Time) from DTTJ Reporting Station
Few Clouds Few Clouds  
Wind Chill: 75°   Ceiling: Unl
Heat Index: 75°   Visibility: 6mi
Dew Point: 57°   Wind: 9mph
Humidity: 53%   Direction: 140°SE
Pressure: 29.88"   Gusts: NA
Location:  32.68°N, 13.18°E
Report Text: DTTJ 261500Z 14008KT 9999 FEW030 24/14 Q1012 NOSIG
Loading
Personal Weather Stations






























Interactive Weather Map New forecast layout! Learn more

10-Day Weather Forecast

Advertisements
Track Severe Weather on mobile